Time;durP1;ratioP1;P1;durP2;ratioP2;P2;SDS_P1;SDS_P2;PMS_P1;PMS_P2;Temp;Humidity;BMP_temperature;BMP_pressure;BME280_temperature;BME280_humidity;BME280_pressure;Samples;Min_cycle;Max_cycle;Signal;HPM_P1;HPM_P2
2021/12/19 00:09:29;;;;;;;34.50;16.70;;;;;;;;;;5041414;28;20441;-52
2021/12/19 00:11:55;;;;;;;38.70;19.17;;;;;;;;;;5038453;28;20940;-51
2021/12/19 00:14:23;;;;;;;31.73;17.27;;;;;;;;;;5043485;28;20478;-52
2021/12/19 00:16:50;;;;;;;37.53;16.83;;;;;;;;;;5029920;28;20443;-51
2021/12/19 00:19:16;;;;;;;37.43;18.00;;;;;;;;;;5046489;28;20448;-52
2021/12/19 00:21:50;;;;;;;35.60;17.50;;;;;;;;;;5014841;28;20474;-52
2021/12/19 00:24:18;;;;;;;34.90;17.10;;;;;;;;;;5046840;28;20496;-51
2021/12/19 00:26:55;;;;;;;41.00;19.63;;;;;;;;;;5035408;28;20859;-52
2021/12/19 00:29:27;;;;;;;37.27;20.23;;;;;;;;;;5043615;28;20466;-51
2021/12/19 00:32:04;;;;;;;36.03;17.33;;;;;;;;;;5041161;28;20508;-51
2021/12/19 00:34:32;;;;;;;38.80;19.47;;;;;;;;;;5044522;28;20577;-51
2021/12/19 00:37:08;;;;;;;43.07;17.67;;;;;;;;;;5029889;28;20494;-52
2021/12/19 00:39:35;;;;;;;38.97;18.27;;;;;;;;;;5046656;28;20442;-52
2021/12/19 00:42:07;;;;;;;44.43;20.00;;;;;;;;;;5040176;28;21493;-52
2021/12/19 00:44:37;;;;;;;38.90;18.67;;;;;;;;;;5049789;28;20446;-52
2021/12/19 00:47:17;;;;;;;37.73;18.87;;;;;;;;;;5020347;28;20510;-54
2021/12/19 00:49:43;;;;;;;32.03;16.90;;;;;;;;;;5045243;28;20430;-51
2021/12/19 00:52:19;;;;;;;38.40;19.77;;;;;;;;;;5026935;28;20442;-52
2021/12/19 00:54:48;;;;;;;33.33;16.37;;;;;;;;;;5047329;28;20544;-52
2021/12/19 00:57:14;;;;;;;40.83;18.43;;;;;;;;;;5026088;28;20941;-51
2021/12/19 00:59:40;;;;;;;38.30;18.27;;;;;;;;;;5047614;28;20439;-51
2021/12/19 01:02:16;;;;;;;35.13;16.87;;;;;;;;;;5033729;28;20528;-51
2021/12/19 01:04:46;;;;;;;41.03;18.80;;;;;;;;;;5043644;28;20442;-51
2021/12/19 01:07:12;;;;;;;33.40;16.00;;;;;;;;;;5037473;28;20984;-51
2021/12/19 01:09:45;;;;;;;42.37;17.80;;;;;;;;;;5023090;28;20580;-52
2021/12/19 01:12:37;;;;;;;31.70;15.63;;;;;;;;;;5045935;28;20450;-52
2021/12/19 01:15:10;;;;;;;41.80;16.70;;;;;;;;;;5044308;28;20478;-52
2021/12/19 01:17:54;;;;;;;34.27;15.50;;;;;;;;;;5033649;28;20673;-51
2021/12/19 01:20:23;;;;;;;30.40;16.00;;;;;;;;;;5041107;28;20435;-51
2021/12/19 01:22:49;;;;;;;33.30;15.77;;;;;;;;;;5020612;28;20446;-50
2021/12/19 01:25:23;;;;;;;30.47;17.60;;;;;;;;;;5026852;28;20443;-51
2021/12/19 01:27:49;;;;;;;37.93;16.40;;;;;;;;;;5049502;28;20966;-51
2021/12/19 01:30:16;;;;;;;39.27;18.30;;;;;;;;;;5044574;28;20449;-50
2021/12/19 01:32:42;;;;;;;28.07;13.23;;;;;;;;;;5027149;28;20851;-52
2021/12/19 01:35:08;;;;;;;30.20;14.90;;;;;;;;;;5046501;28;20569;-50
2021/12/19 01:37:44;;;;;;;27.00;13.60;;;;;;;;;;5021831;28;20457;-52
2021/12/19 01:40:15;;;;;;;30.40;15.13;;;;;;;;;;5043209;28;20469;-52
2021/12/19 01:42:50;;;;;;;35.83;16.30;;;;;;;;;;5029652;28;20439;-51
2021/12/19 01:45:22;;;;;;;23.23;13.40;;;;;;;;;;5056373;28;20446;-50
2021/12/19 01:47:53;;;;;;;30.67;14.27;;;;;;;;;;5026931;28;20492;-50
2021/12/19 01:50:19;;;;;;;28.37;14.00;;;;;;;;;;5041115;28;20457;-51
2021/12/19 01:52:46;;;;;;;29.00;14.13;;;;;;;;;;5040534;28;20537;-52
2021/12/19 01:55:12;;;;;;;30.27;15.03;;;;;;;;;;5044675;28;20532;-51
2021/12/19 01:57:48;;;;;;;28.23;15.07;;;;;;;;;;5024852;28;20443;-52
2021/12/19 02:00:28;;;;;;;28.60;12.93;;;;;;;;;;5041928;28;20446;-52
2021/12/19 02:03:10;;;;;;;29.63;12.30;;;;;;;;;;5042657;28;20517;-53
2021/12/19 02:05:40;;;;;;;26.90;14.27;;;;;;;;;;5039412;28;20883;-52
2021/12/19 02:08:13;;;;;;;26.57;14.00;;;;;;;;;;5042564;28;20436;-52
2021/12/19 02:10:43;;;;;;;25.83;13.57;;;;;;;;;;5039048;28;20440;-52
2021/12/19 02:13:27;;;;;;;22.60;12.43;;;;;;;;;;5030685;28;20445;-52
2021/12/19 02:15:59;;;;;;;28.97;12.80;;;;;;;;;;5042770;28;20462;-52
2021/12/19 02:18:40;;;;;;;30.80;13.40;;;;;;;;;;5034409;28;21285;-52
2021/12/19 02:21:08;;;;;;;18.90;12.20;;;;;;;;;;5043424;28;20600;-51
2021/12/19 02:23:34;;;;;;;26.20;10.93;;;;;;;;;;5042406;28;20510;-52
2021/12/19 02:26:03;;;;;;;24.87;11.87;;;;;;;;;;5043151;28;20465;-51
2021/12/19 02:28:55;;;;;;;24.30;11.77;;;;;;;;;;5046139;28;20435;-52
2021/12/19 02:31:27;;;;;;;24.83;11.70;;;;;;;;;;5056864;28;20446;-52
2021/12/19 02:34:03;;;;;;;26.23;12.30;;;;;;;;;;5023494;28;21094;-51
2021/12/19 02:39:33;;;;;;;22.20;9.60;;;;;;;;;;5021530;28;20457;-51
2021/12/19 02:50:05;;;;;;;27.47;12.43;;;;;;;;;;5029041;28;20524;-52
2021/12/19 02:52:31;;;;;;;20.73;10.17;;;;;;;;;;5041020;28;20442;-51
2021/12/19 02:54:58;;;;;;;23.70;10.70;;;;;;;;;;5032232;28;20490;-52
2021/12/19 02:57:25;;;;;;;23.30;10.23;;;;;;;;;;5039415;28;20426;-51
2021/12/19 02:59:51;;;;;;;26.50;11.30;;;;;;;;;;5053294;28;20980;-52
2021/12/19 03:02:18;;;;;;;21.87;10.63;;;;;;;;;;5037290;28;20450;-52
2021/12/19 03:04:57;;;;;;;31.73;17.73;;;;;;;;;;5044917;28;20514;-52
2021/12/19 03:07:25;;;;;;;33.60;14.20;;;;;;;;;;5026724;28;20955;-52
2021/12/19 03:18:05;;;;;;;24.30;11.30;;;;;;;;;;5039561;28;20806;-51
2021/12/19 03:20:32;;;;;;;22.67;11.07;;;;;;;;;;5045912;28;21061;-51
2021/12/19 03:22:58;;;;;;;21.20;10.50;;;;;;;;;;5031043;28;20465;-51
2021/12/19 03:25:24;;;;;;;16.43;9.67;;;;;;;;;;5043645;28;20438;-52
2021/12/19 03:27:51;;;;;;;20.70;11.33;;;;;;;;;;5033171;28;20434;-51
2021/12/19 03:30:18;;;;;;;20.87;10.47;;;;;;;;;;5043689;28;20457;-52
2021/12/19 03:32:44;;;;;;;20.70;10.83;;;;;;;;;;5034138;28;20435;-55
2021/12/19 03:35:17;;;;;;;30.10;11.63;;;;;;;;;;5045327;28;20862;-51
2021/12/19 03:37:44;;;;;;;22.60;12.40;;;;;;;;;;5020558;28;20434;-52
2021/12/19 03:40:12;;;;;;;25.13;11.50;;;;;;;;;;5045344;28;20473;-51
2021/12/19 03:42:43;;;;;;;25.37;10.60;;;;;;;;;;5042916;28;20426;-52
2021/12/19 03:45:17;;;;;;;17.03;9.97;;;;;;;;;;5028600;28;20679;-52
2021/12/19 03:47:44;;;;;;;22.20;10.47;;;;;;;;;;5035344;28;20437;-53
2021/12/19 03:50:12;;;;;;;24.57;10.50;;;;;;;;;;5041819;28;20543;-51
2021/12/19 03:52:39;;;;;;;20.83;9.87;;;;;;;;;;5012387;28;20441;-51
2021/12/19 03:55:05;;;;;;;17.70;8.60;;;;;;;;;;5047869;28;20466;-50
2021/12/19 03:57:32;;;;;;;24.50;10.87;;;;;;;;;;5034519;28;20434;-50
2021/12/19 04:00:07;;;;;;;18.70;10.63;;;;;;;;;;5031413;28;20982;-50
2021/12/19 04:02:33;;;;;;;25.80;10.30;;;;;;;;;;5022307;28;20543;-50
2021/12/19 04:05:00;;;;;;;21.07;9.40;;;;;;;;;;5045917;28;20530;-51
2021/12/19 04:07:26;;;;;;;19.20;9.53;;;;;;;;;;5040015;28;20469;-50
2021/12/19 04:09:52;;;;;;;20.40;11.10;;;;;;;;;;5045126;28;22958;-50
2021/12/19 04:12:18;;;;;;;19.53;10.40;;;;;;;;;;5004822;28;20853;-50
2021/12/19 04:14:44;;;;;;;16.97;9.53;;;;;;;;;;5045367;28;20527;-51
2021/12/19 04:17:41;;;;;;;19.60;9.90;;;;;;;;;;5052509;28;20438;-51
2021/12/19 04:20:19;;;;;;;19.07;10.40;;;;;;;;;;5043384;28;20567;-51
2021/12/19 04:22:51;;;;;;;15.13;9.40;;;;;;;;;;5028364;28;20451;-52
2021/12/19 04:25:29;;;;;;;20.60;9.77;;;;;;;;;;5040141;28;20441;-51
2021/12/19 04:28:04;;;;;;;19.30;8.97;;;;;;;;;;5048764;28;20439;-51
2021/12/19 04:30:50;;;;;;;16.60;8.47;;;;;;;;;;5040545;28;20585;-51
2021/12/19 04:33:22;;;;;;;15.13;8.70;;;;;;;;;;5043120;28;20430;-51
2021/12/19 04:36:06;;;;;;;22.97;9.63;;;;;;;;;;5035158;28;20482;-52
2021/12/19 04:41:46;;;;;;;19.80;9.30;;;;;;;;;;5043721;28;20456;-52
2021/12/19 04:51:02;;;;;;;14.07;7.60;;;;;;;;;;5046247;28;21029;-51
2021/12/19 04:55:42;;;;;;;17.87;7.77;;;;;;;;;;5044833;28;20521;-51
2021/12/19 05:03:44;;;;;;;14.23;7.97;;;;;;;;;;5043840;28;20481;-51
2021/12/19 05:14:24;;;;;;;17.27;8.23;;;;;;;;;;5043299;28;20485;-52
2021/12/19 05:16:51;;;;;;;21.90;10.60;;;;;;;;;;5026725;28;20458;-56
2021/12/19 05:19:24;;;;;;;20.67;9.70;;;;;;;;;;5039111;28;20565;-51
2021/12/19 05:21:54;;;;;;;22.77;9.03;;;;;;;;;;5023204;28;20526;-51
2021/12/19 05:27:05;;;;;;;22.27;7.93;;;;;;;;;;5022507;28;20425;-51
2021/12/19 05:29:31;;;;;;;21.23;10.20;;;;;;;;;;5041517;28;20466;-51
2021/12/19 05:31:58;;;;;;;17.73;9.00;;;;;;;;;;5041504;28;20436;-52
2021/12/19 05:34:25;;;;;;;16.40;9.20;;;;;;;;;;5041800;28;20483;-51
2021/12/19 05:45:21;;;;;;;14.90;7.80;;;;;;;;;;5037964;28;20541;-51
2021/12/19 05:47:52;;;;;;;14.30;7.80;;;;;;;;;;5025757;28;20446;-51
2021/12/19 05:50:19;;;;;;;13.23;7.80;;;;;;;;;;5042549;28;20639;-51
2021/12/19 05:52:59;;;;;;;17.57;7.63;;;;;;;;;;5036298;28;20447;-51
2021/12/19 05:55:26;;;;;;;15.57;7.63;;;;;;;;;;5043987;28;20486;-51
2021/12/19 05:58:07;;;;;;;15.60;8.30;;;;;;;;;;5023483;28;20965;-51
2021/12/19 06:00:40;;;;;;;10.97;6.60;;;;;;;;;;5036796;28;20489;-50
2021/12/19 06:03:11;;;;;;;14.13;7.10;;;;;;;;;;5034059;28;20534;-51
2021/12/19 06:05:40;;;;;;;17.10;8.50;;;;;;;;;;5040149;28;20422;-50
2021/12/19 06:08:15;;;;;;;16.77;8.07;;;;;;;;;;5036386;28;20446;-51
2021/12/19 06:10:41;;;;;;;16.63;8.30;;;;;;;;;;5034191;28;20430;-51
2021/12/19 06:13:23;;;;;;;15.27;7.90;;;;;;;;;;5052068;28;20431;-51
2021/12/19 06:16:14;;;;;;;13.57;7.33;;;;;;;;;;5043992;28;20449;-51
2021/12/19 06:18:42;;;;;;;16.13;7.07;;;;;;;;;;5041865;28;20442;-51
2021/12/19 06:21:09;;;;;;;13.77;7.63;;;;;;;;;;5042943;28;20443;-50
2021/12/19 06:23:40;;;;;;;11.83;6.00;;;;;;;;;;5025094;28;21148;-53
2021/12/19 06:26:11;;;;;;;12.03;8.10;;;;;;;;;;5041813;28;20978;-51
2021/12/19 06:28:39;;;;;;;14.00;8.30;;;;;;;;;;5045491;28;20438;-50
2021/12/19 06:31:05;;;;;;;14.83;6.87;;;;;;;;;;5041077;28;20814;-51
2021/12/19 06:33:34;;;;;;;13.47;7.37;;;;;;;;;;5045334;28;20445;-51
2021/12/19 06:36:02;;;;;;;20.60;6.83;;;;;;;;;;5042096;28;20538;-52
2021/12/19 06:38:28;;;;;;;14.47;7.57;;;;;;;;;;5044553;28;20438;-51
2021/12/19 06:41:00;;;;;;;15.50;6.43;;;;;;;;;;5036507;28;20446;-52
2021/12/19 06:43:30;;;;;;;15.23;7.23;;;;;;;;;;5042870;28;20537;-52
2021/12/19 06:46:09;;;;;;;16.80;8.03;;;;;;;;;;5037100;28;20436;-52
2021/12/19 06:48:39;;;;;;;11.93;6.70;;;;;;;;;;5041658;28;20495;-51
2021/12/19 06:51:05;;;;;;;14.13;7.23;;;;;;;;;;5024556;28;20738;-52
2021/12/19 06:53:31;;;;;;;12.87;7.00;;;;;;;;;;5045643;28;20434;-51
2021/12/19 06:56:04;;;;;;;10.20;7.00;;;;;;;;;;5038320;28;20473;-51
2021/12/19 06:58:32;;;;;;;12.43;5.67;;;;;;;;;;5053129;28;20440;-52
2021/12/19 07:00:58;;;;;;;13.67;6.83;;;;;;;;;;5031227;28;20458;-52
2021/12/19 07:03:25;;;;;;;10.00;6.20;;;;;;;;;;5043264;28;20506;-51
2021/12/19 07:05:51;;;;;;;10.47;5.77;;;;;;;;;;5041168;28;20506;-52
2021/12/19 07:08:18;;;;;;;11.90;6.20;;;;;;;;;;5046515;28;21320;-52
2021/12/19 07:10:44;;;;;;;10.00;5.40;;;;;;;;;;5028555;28;21064;-52
2021/12/19 07:13:10;;;;;;;11.57;5.97;;;;;;;;;;5043689;28;20480;-52
2021/12/19 07:15:36;;;;;;;11.57;5.43;;;;;;;;;;5041173;28;20496;-51
2021/12/19 07:18:04;;;;;;;9.03;5.10;;;;;;;;;;5038674;28;20434;-52
2021/12/19 07:20:35;;;;;;;12.20;5.10;;;;;;;;;;5043617;28;21204;-52
2021/12/19 07:23:02;;;;;;;7.80;4.23;;;;;;;;;;5038884;28;20455;-51
2021/12/19 07:25:33;;;;;;;9.53;5.20;;;;;;;;;;5029176;28;21027;-52
2021/12/19 07:28:00;;;;;;;7.63;4.30;;;;;;;;;;5043333;28;20776;-51
2021/12/19 07:30:49;;;;;;;10.00;6.17;;;;;;;;;;5036700;28;21083;-53
2021/12/19 07:33:21;;;;;;;12.63;5.70;;;;;;;;;;5040366;28;20442;-52
2021/12/19 07:36:18;;;;;;;10.37;5.17;;;;;;;;;;5035945;28;20508;-52
2021/12/19 07:38:58;;;;;;;10.00;5.50;;;;;;;;;;5039402;28;20833;-52
2021/12/19 07:41:38;;;;;;;8.80;4.87;;;;;;;;;;5043549;28;20462;-52
2021/12/19 07:44:08;;;;;;;10.30;4.10;;;;;;;;;;5045734;28;20450;-51
2021/12/19 07:46:34;;;;;;;9.60;4.50;;;;;;;;;;5017203;28;20537;-51
2021/12/19 07:49:00;;;;;;;9.10;4.80;;;;;;;;;;5057518;28;20621;-50
2021/12/19 07:51:26;;;;;;;8.63;4.60;;;;;;;;;;5039459;28;20949;-51
2021/12/19 07:53:52;;;;;;;10.77;5.43;;;;;;;;;;5048220;28;20430;-51
2021/12/19 07:56:18;;;;;;;8.13;4.70;;;;;;;;;;5042008;28;20783;-50
2021/12/19 07:58:44;;;;;;;8.47;4.23;;;;;;;;;;5043533;28;21018;-51
2021/12/19 08:01:24;;;;;;;6.70;3.93;;;;;;;;;;5031584;28;20221;-52
2021/12/19 08:03:50;;;;;;;6.87;4.43;;;;;;;;;;5040302;28;21013;-51
2021/12/19 08:06:16;;;;;;;7.23;3.67;;;;;;;;;;5047771;28;20433;-52
2021/12/19 08:08:47;;;;;;;8.27;4.60;;;;;;;;;;5015168;28;20434;-50
2021/12/19 08:13:58;;;;;;;8.30;4.47;;;;;;;;;;5025054;28;20893;-51
2021/12/19 08:16:25;;;;;;;8.17;4.90;;;;;;;;;;5047579;28;20477;-50
2021/12/19 08:18:52;;;;;;;6.00;4.40;;;;;;;;;;5028447;28;20446;-50
2021/12/19 08:21:18;;;;;;;9.50;5.27;;;;;;;;;;5042520;28;20476;-51
2021/12/19 08:23:45;;;;;;;9.20;4.23;;;;;;;;;;5043482;28;20426;-52
2021/12/19 08:26:11;;;;;;;6.93;4.40;;;;;;;;;;5051364;28;20442;-51
2021/12/19 08:28:37;;;;;;;7.60;4.40;;;;;;;;;;5020618;28;20883;-51
2021/12/19 08:31:03;;;;;;;7.00;3.87;;;;;;;;;;5045406;28;20541;-51
2021/12/19 08:33:29;;;;;;;7.23;3.67;;;;;;;;;;5008293;28;20433;-51
2021/12/19 08:35:59;;;;;;;15.00;4.80;;;;;;;;;;5046378;28;20478;-52
2021/12/19 08:38:47;;;;;;;8.20;5.07;;;;;;;;;;5039048;28;20441;-52
2021/12/19 08:41:41;;;;;;;11.00;5.63;;;;;;;;;;5025550;28;20599;-52
2021/12/19 08:44:12;;;;;;;6.83;3.33;;;;;;;;;;5042809;28;20427;-52
2021/12/19 08:46:51;;;;;;;9.20;3.53;;;;;;;;;;5021039;28;20450;-52
2021/12/19 08:49:22;;;;;;;5.40;3.63;;;;;;;;;;5042909;28;20439;-51
2021/12/19 08:51:59;;;;;;;5.80;3.53;;;;;;;;;;5020275;28;20451;-51
2021/12/19 08:54:27;;;;;;;5.73;3.20;;;;;;;;;;5042020;28;21121;-51
2021/12/19 08:56:53;;;;;;;6.43;4.10;;;;;;;;;;5038771;28;20979;-50
2021/12/19 08:59:19;;;;;;;9.10;4.87;;;;;;;;;;5043502;28;20446;-57
2021/12/19 09:01:49;;;;;;;9.03;3.33;;;;;;;;;;5016715;28;20449;-53
2021/12/19 09:04:16;;;;;;;5.30;3.53;;;;;;;;;;5024623;28;20441;-51
2021/12/19 09:07:08;;;;;;;4.30;2.70;;;;;;;;;;5018104;28;20553;-51
2021/12/19 09:09:35;;;;;;;5.60;3.30;;;;;;;;;;5045850;28;20423;-51
2021/12/19 09:12:02;;;;;;;6.67;2.93;;;;;;;;;;5024970;28;22611;-52
2021/12/19 09:14:28;;;;;;;4.83;2.73;;;;;;;;;;5012436;28;21217;-50
2021/12/19 09:16:56;;;;;;;6.03;2.50;;;;;;;;;;5039305;28;20434;-55
2021/12/19 09:19:27;;;;;;;4.40;2.83;;;;;;;;;;5025088;28;20839;-49
2021/12/19 09:21:53;;;;;;;5.87;2.87;;;;;;;;;;5041830;28;20908;-50
2021/12/19 09:24:19;;;;;;;5.90;3.83;;;;;;;;;;5016436;28;20458;-48
2021/12/19 09:26:45;;;;;;;3.63;2.83;;;;;;;;;;5046110;28;20461;-49
2021/12/19 09:29:11;;;;;;;4.13;2.63;;;;;;;;;;5020610;28;20476;-48
2021/12/19 09:31:38;;;;;;;6.17;4.30;;;;;;;;;;5045712;28;20447;-49
2021/12/19 09:34:07;;;;;;;4.43;4.00;;;;;;;;;;5026478;28;23198;-49
2021/12/19 09:36:33;;;;;;;4.13;2.67;;;;;;;;;;5043488;28;20470;-49
2021/12/19 09:39:18;;;;;;;4.17;3.30;;;;;;;;;;5033689;28;20445;-49
2021/12/19 09:41:45;;;;;;;5.70;3.60;;;;;;;;;;5019678;28;20469;-48
2021/12/19 09:44:14;;;;;;;4.03;2.50;;;;;;;;;;5043980;28;21170;-51
2021/12/19 09:46:41;;;;;;;6.13;2.50;;;;;;;;;;5026015;28;20435;-48
2021/12/19 09:49:08;;;;;;;4.30;2.40;;;;;;;;;;5040351;28;21010;-49
2021/12/19 09:51:34;;;;;;;5.93;2.50;;;;;;;;;;5014677;28;20604;-48
2021/12/19 09:54:01;;;;;;;3.60;2.73;;;;;;;;;;5040048;28;20513;-49
2021/12/19 09:56:28;;;;;;;2.80;2.13;;;;;;;;;;5011049;28;20473;-50
2021/12/19 09:58:54;;;;;;;4.20;2.80;;;;;;;;;;5041821;28;20434;-50
2021/12/19 10:01:20;;;;;;;5.00;3.00;;;;;;;;;;5022436;28;20516;-50
2021/12/19 10:03:46;;;;;;;3.00;2.27;;;;;;;;;;5026647;28;20426;-49
2021/12/19 10:06:13;;;;;;;4.20;3.70;;;;;;;;;;5017950;28;20452;-48
2021/12/19 10:08:39;;;;;;;3.67;2.47;;;;;;;;;;5041293;28;20854;-51
2021/12/19 10:14:23;;;;;;;3.00;2.33;;;;;;;;;;5039170;28;20645;-48
2021/12/19 10:16:56;;;;;;;4.30;2.87;;;;;;;;;;5016727;28;20657;-51
2021/12/19 10:19:41;;;;;;;2.87;2.43;;;;;;;;;;5032908;28;21050;-50
2021/12/19 10:22:23;;;;;;;6.00;3.50;;;;;;;;;;5019310;28;20464;-50
2021/12/19 10:24:49;;;;;;;3.90;2.43;;;;;;;;;;5042994;28;20433;-51
2021/12/19 10:27:34;;;;;;;5.53;3.50;;;;;;;;;;5028443;28;20955;-50
2021/12/19 10:30:01;;;;;;;4.07;3.23;;;;;;;;;;5027051;28;20461;-52
2021/12/19 10:32:27;;;;;;;2.60;2.40;;;;;;;;;;5041451;28;20969;-50
2021/12/19 10:35:17;;;;;;;4.37;2.53;;;;;;;;;;5035304;28;20485;-51
2021/12/19 10:37:44;;;;;;;3.53;2.97;;;;;;;;;;5016048;28;20422;-50
2021/12/19 10:40:13;;;;;;;4.57;2.40;;;;;;;;;;5012078;28;21015;-50
2021/12/19 10:42:49;;;;;;;4.23;3.10;;;;;;;;;;5042377;28;20495;-50
2021/12/19 10:48:13;;;;;;;3.43;2.70;;;;;;;;;;5039305;28;21031;-54
2021/12/19 10:51:13;;;;;;;4.60;2.40;;;;;;;;;;5039438;28;20435;-50
2021/12/19 10:53:52;;;;;;;2.80;2.33;;;;;;;;;;5038664;28;20446;-49
2021/12/19 10:56:31;;;;;;;3.83;2.90;;;;;;;;;;5018272;28;20446;-50
2021/12/19 10:59:00;;;;;;;4.27;2.53;;;;;;;;;;5047039;28;20522;-50
2021/12/19 11:01:58;;;;;;;5.20;3.07;;;;;;;;;;5021912;28;20782;-50
2021/12/19 11:04:24;;;;;;;4.37;3.00;;;;;;;;;;5038271;28;20436;-50
2021/12/19 11:06:54;;;;;;;5.67;5.17;;;;;;;;;;5022861;28;20517;-49
2021/12/19 11:09:20;;;;;;;5.03;3.73;;;;;;;;;;5046358;28;20450;-50
2021/12/19 11:12:05;;;;;;;4.20;3.00;;;;;;;;;;5025820;28;20585;-50
2021/12/19 11:14:37;;;;;;;5.70;2.90;;;;;;;;;;5048778;28;20490;-50
2021/12/19 11:17:06;;;;;;;7.53;3.93;;;;;;;;;;5009565;28;20798;-50
2021/12/19 11:19:32;;;;;;;5.07;3.80;;;;;;;;;;5046337;28;20470;-50
2021/12/19 11:21:58;;;;;;;5.23;3.07;;;;;;;;;;5047256;28;20500;-50
2021/12/19 11:24:25;;;;;;;6.30;3.70;;;;;;;;;;5048913;28;20434;-50
2021/12/19 11:26:55;;;;;;;4.67;3.30;;;;;;;;;;5023018;28;20894;-48
2021/12/19 11:29:21;;;;;;;6.00;4.43;;;;;;;;;;5047447;28;20528;-49
2021/12/19 11:31:50;;;;;;;3.30;2.97;;;;;;;;;;5025609;28;20434;-50
2021/12/19 11:34:23;;;;;;;4.80;2.90;;;;;;;;;;5045419;28;20465;-50
2021/12/19 11:36:53;;;;;;;3.63;2.97;;;;;;;;;;5045987;28;20441;-50
2021/12/19 11:39:19;;;;;;;6.57;3.60;;;;;;;;;;5028794;28;20449;-49
2021/12/19 11:42:19;;;;;;;5.17;3.90;;;;;;;;;;5042909;28;20442;-49
2021/12/19 11:45:15;;;;;;;7.53;3.93;;;;;;;;;;5018015;28;20506;-49
2021/12/19 11:47:37;;;;;;;5.00;2.93;;;;;;;;;;5046639;28;20478;-47
2021/12/19 11:50:11;;;;;;;7.40;5.13;;;;;;;;;;5024842;28;20435;-50
2021/12/19 11:52:42;;;;;;;4.27;3.50;;;;;;;;;;5044686;28;20998;-50
2021/12/19 11:55:14;;;;;;;6.90;4.00;;;;;;;;;;5028569;28;20995;-50
2021/12/19 11:57:44;;;;;;;4.57;2.83;;;;;;;;;;5048665;28;20434;-49
2021/12/19 12:00:29;;;;;;;6.40;3.10;;;;;;;;;;5021476;28;20450;-50
2021/12/19 12:03:21;;;;;;;5.87;3.50;;;;;;;;;;5045076;28;20432;-49
2021/12/19 12:06:10;;;;;;;4.40;3.40;;;;;;;;;;5056611;28;20442;-50
2021/12/19 12:09:22;;;;;;;6.53;3.93;;;;;;;;;;5036402;28;20434;-49
2021/12/19 12:12:03;;;;;;;7.37;4.63;;;;;;;;;;5026654;28;20491;-50
2021/12/19 12:14:35;;;;;;;4.67;3.60;;;;;;;;;;5035437;28;20462;-49
2021/12/19 12:17:05;;;;;;;4.63;3.13;;;;;;;;;;5048017;28;20476;-49
2021/12/19 12:19:42;;;;;;;5.23;3.57;;;;;;;;;;5044900;28;20442;-50
2021/12/19 12:22:25;;;;;;;7.03;3.67;;;;;;;;;;5048610;28;20422;-50
2021/12/19 12:25:03;;;;;;;4.03;3.60;;;;;;;;;;5040891;28;20438;-50
2021/12/19 12:27:35;;;;;;;4.90;3.80;;;;;;;;;;5046469;28;20438;-50
2021/12/19 12:30:03;;;;;;;6.50;3.90;;;;;;;;;;5044488;28;20438;-50
2021/12/19 12:32:29;;;;;;;6.37;3.10;;;;;;;;;;5044322;28;20437;-49
2021/12/19 12:34:55;;;;;;;5.13;4.43;;;;;;;;;;5017000;28;20495;-49
2021/12/19 12:37:24;;;;;;;4.30;3.40;;;;;;;;;;5046624;28;20958;-49
2021/12/19 12:40:15;;;;;;;5.30;3.60;;;;;;;;;;5016492;28;20510;-49
2021/12/19 12:42:56;;;;;;;6.67;3.90;;;;;;;;;;5046207;28;20429;-50
2021/12/19 12:45:22;;;;;;;5.80;4.10;;;;;;;;;;5020414;28;20442;-49
2021/12/19 12:47:49;;;;;;;5.43;3.73;;;;;;;;;;5040946;28;20433;-49
2021/12/19 12:50:15;;;;;;;7.23;4.53;;;;;;;;;;5041217;28;20439;-49
2021/12/19 12:52:41;;;;;;;5.80;3.20;;;;;;;;;;5043839;28;20430;-49
2021/12/19 12:55:07;;;;;;;5.20;3.77;;;;;;;;;;5036893;28;21003;-51
2021/12/19 12:57:45;;;;;;;7.70;3.90;;;;;;;;;;5041824;28;20442;-50
2021/12/19 13:00:19;;;;;;;5.90;3.40;;;;;;;;;;5036551;28;20450;-50
2021/12/19 13:02:53;;;;;;;6.53;4.00;;;;;;;;;;5031235;28;20723;-49
2021/12/19 13:05:19;;;;;;;4.57;4.17;;;;;;;;;;5030824;28;20434;-48
2021/12/19 13:08:02;;;;;;;6.57;4.37;;;;;;;;;;5026791;28;20442;-50
2021/12/19 13:10:31;;;;;;;4.53;3.57;;;;;;;;;;5027820;28;20487;-51
2021/12/19 13:13:21;;;;;;;6.10;3.57;;;;;;;;;;5026855;28;20458;-51
2021/12/19 13:15:47;;;;;;;5.67;3.87;;;;;;;;;;5041378;28;20466;-50
2021/12/19 13:18:16;;;;;;;4.70;3.50;;;;;;;;;;5025550;28;20469;-50
2021/12/19 13:20:44;;;;;;;4.57;3.47;;;;;;;;;;5045622;28;20441;-52
2021/12/19 13:23:22;;;;;;;5.00;3.47;;;;;;;;;;5038775;28;20467;-50
2021/12/19 13:26:24;;;;;;;4.80;3.87;;;;;;;;;;5046642;28;20441;-49
2021/12/19 13:29:19;;;;;;;6.23;3.80;;;;;;;;;;5029495;28;20452;-50
2021/12/19 13:32:21;;;;;;;5.87;3.83;;;;;;;;;;5041120;28;20430;-49
2021/12/19 13:34:48;;;;;;;9.00;5.30;;;;;;;;;;5047487;28;20480;-50
2021/12/19 13:37:33;;;;;;;7.00;4.60;;;;;;;;;;5032907;28;20529;-52
2021/12/19 13:40:08;;;;;;;4.47;3.70;;;;;;;;;;5026222;28;20421;-50
2021/12/19 13:42:45;;;;;;;6.93;4.57;;;;;;;;;;5013879;28;21368;-50
2021/12/19 13:45:22;;;;;;;4.67;3.27;;;;;;;;;;5045760;28;20450;-50
2021/12/19 13:47:53;;;;;;;6.10;3.47;;;;;;;;;;5038672;28;20443;-50
2021/12/19 13:50:27;;;;;;;4.70;3.50;;;;;;;;;;5026734;28;20909;-50
2021/12/19 13:52:53;;;;;;;5.07;3.80;;;;;;;;;;5033487;28;20446;-49
2021/12/19 13:55:19;;;;;;;8.40;6.07;;;;;;;;;;5036226;28;20865;-50
2021/12/19 13:58:17;;;;;;;5.23;3.60;;;;;;;;;;5014722;28;20446;-50
2021/12/19 14:00:49;;;;;;;5.63;3.70;;;;;;;;;;5038605;28;20453;-50
2021/12/19 14:03:35;;;;;;;5.27;4.50;;;;;;;;;;5028706;28;20450;-51
2021/12/19 14:06:10;;;;;;;8.60;5.33;;;;;;;;;;5047622;28;20431;-50
2021/12/19 14:08:38;;;;;;;8.97;5.27;;;;;;;;;;5039365;28;20472;-50
2021/12/19 14:11:05;;;;;;;9.03;5.33;;;;;;;;;;5044696;28;20427;-49
2021/12/19 14:13:39;;;;;;;7.87;5.10;;;;;;;;;;5037935;28;20434;-49
2021/12/19 14:16:06;;;;;;;9.70;5.77;;;;;;;;;;5046108;28;20490;-50
2021/12/19 14:18:37;;;;;;;10.90;6.10;;;;;;;;;;5032317;28;20446;-49
2021/12/19 14:21:03;;;;;;;8.60;5.07;;;;;;;;;;5036903;28;20457;-49
2021/12/19 14:23:29;;;;;;;7.40;5.33;;;;;;;;;;5011512;28;20442;-49
2021/12/19 14:25:58;;;;;;;9.70;5.37;;;;;;;;;;5036751;28;21007;-48
2021/12/19 14:28:36;;;;;;;12.47;6.80;;;;;;;;;;5010399;28;21186;-49
2021/12/19 14:31:04;;;;;;;9.90;7.13;;;;;;;;;;5029077;28;20442;-50
2021/12/19 14:33:34;;;;;;;10.10;7.17;;;;;;;;;;5035625;28;20515;-53
2021/12/19 14:36:01;;;;;;;8.90;6.00;;;;;;;;;;5023758;28;20538;-49
2021/12/19 14:38:28;;;;;;;7.70;5.57;;;;;;;;;;5039467;28;20438;-50
2021/12/19 14:40:58;;;;;;;9.57;5.40;;;;;;;;;;5027233;28;20502;-49
2021/12/19 14:43:27;;;;;;;7.93;5.47;;;;;;;;;;5038982;28;20446;-49
2021/12/19 14:45:56;;;;;;;6.43;5.10;;;;;;;;;;5019596;28;20530;-49
2021/12/19 14:48:35;;;;;;;7.83;5.80;;;;;;;;;;5039086;28;20890;-49
2021/12/19 14:51:14;;;;;;;8.40;5.50;;;;;;;;;;5021527;28;20449;-49
2021/12/19 14:53:43;;;;;;;9.10;6.40;;;;;;;;;;5032575;28;20438;-49
2021/12/19 14:56:24;;;;;;;10.43;5.83;;;;;;;;;;5026892;28;20475;-49
2021/12/19 14:59:26;;;;;;;9.30;5.90;;;;;;;;;;5036123;28;20546;-50
2021/12/19 15:01:58;;;;;;;9.87;6.30;;;;;;;;;;5012940;28;20449;-50
2021/12/19 15:04:25;;;;;;;8.47;6.50;;;;;;;;;;5039674;28;20435;-50
2021/12/19 15:06:58;;;;;;;8.63;5.17;;;;;;;;;;5017744;28;20434;-49
2021/12/19 15:09:29;;;;;;;9.30;6.27;;;;;;;;;;5035574;28;20548;-50
2021/12/19 15:11:56;;;;;;;10.60;6.90;;;;;;;;;;5028724;28;20473;-50
2021/12/19 15:14:22;;;;;;;9.23;5.87;;;;;;;;;;5024340;28;20470;-50
2021/12/19 15:16:49;;;;;;;12.63;6.93;;;;;;;;;;5016934;28;20454;-49
2021/12/19 15:19:15;;;;;;;9.07;6.77;;;;;;;;;;5040387;28;20841;-49
2021/12/19 15:21:41;;;;;;;9.30;6.80;;;;;;;;;;5011499;28;20454;-54
2021/12/19 15:24:07;;;;;;;10.63;7.57;;;;;;;;;;5044792;28;20521;-50
2021/12/19 15:26:33;;;;;;;10.80;6.23;;;;;;;;;;5015041;28;20567;-49
2021/12/19 15:29:00;;;;;;;11.60;6.23;;;;;;;;;;5045422;28;20931;-50
2021/12/19 15:31:26;;;;;;;8.03;5.97;;;;;;;;;;5006409;28;20982;-49
2021/12/19 15:33:52;;;;;;;9.20;6.10;;;;;;;;;;5042029;28;20437;-48
2021/12/19 15:36:20;;;;;;;9.90;5.97;;;;;;;;;;5036490;28;20477;-50
2021/12/19 15:38:46;;;;;;;9.17;5.63;;;;;;;;;;5046661;28;20438;-49
2021/12/19 15:41:12;;;;;;;10.90;5.70;;;;;;;;;;5035338;28;20424;-48
2021/12/19 15:43:40;;;;;;;10.27;6.07;;;;;;;;;;5042628;28;20494;-50
2021/12/19 15:46:06;;;;;;;9.30;5.00;;;;;;;;;;5009416;28;20442;-49
2021/12/19 15:48:32;;;;;;;14.70;9.30;;;;;;;;;;5041239;28;20437;-48
2021/12/19 15:50:58;;;;;;;8.70;5.80;;;;;;;;;;5017436;28;20478;-48
2021/12/19 15:53:24;;;;;;;13.23;8.87;;;;;;;;;;5040550;28;20438;-49
2021/12/19 15:56:30;;;;;;;11.50;6.97;;;;;;;;;;5042054;28;20485;-50
2021/12/19 15:59:01;;;;;;;14.87;9.80;;;;;;;;;;5043765;28;20176;-49
2021/12/19 16:01:47;;;;;;;11.70;7.50;;;;;;;;;;5039338;28;20461;-51
2021/12/19 16:04:13;;;;;;;9.03;5.83;;;;;;;;;;5043267;28;20508;-48
2021/12/19 16:06:39;;;;;;;10.13;6.70;;;;;;;;;;5017801;28;21250;-48
2021/12/19 16:09:05;;;;;;;6.67;5.07;;;;;;;;;;5046746;28;20438;-49
2021/12/19 16:11:33;;;;;;;16.30;9.30;;;;;;;;;;5053312;28;20561;-50
2021/12/19 16:14:00;;;;;;;14.60;9.53;;;;;;;;;;5046276;28;20920;-50